Pagina principale
METAR-TAF:

METAR-TAF

Aeroporti :

Aeroporto di Sármellék

Hévíz, Ungheria

latitudine: 46-41-11N, longitudine: 017-09-33E, altezza: 124 m

Osservazione

Il bollettino è stato emesso 50 minuti fa, alle 01:15 UTC
Vento 2 kt da sud-ovest
Temperature -1°C
Umidità 93%
Pressione 1025 hPa
Visibilità: 3800 m
Nuvoloso ad un'altezza di 200 ft
foschia

METAR: LHSM 250115Z AUTO 23002KT 3800 BR BKN002 M01/M02 Q1025

Ora: 03:05 (02:05 UTC)

Previsione

Il bollettino è stato emesso 14 ore e 50 minuti fa, alle 11:15 UTC
Previsione valida dal 24 alle 12 UTC al 24 alle 21 UTC
Vento 6 kt da sud/sud-est
Visibilità: 3000 m
Nuvoloso ad un'altezza di 500 ft
foschia
Temporaneamente
dal 24 alle 12 UTC al 24 alle 21 UTC
Visibilità: 1500 m
Cielo coperto ad un'altezza di 200 ft
foschia

TAF: LHSM 241115Z 2412/2421 16006KT 3000 BR BKN005 TEMPO 2412/2421 1500 BR OVC002

Osservazioni e previsioni meteorologiche di più di 4000 aeroporti (messaggi METAR e TAF).

Le stazioni disponibili sono rappresentate dai dischi gialli e rossi sulla carta.

Puntare il mouse per vedere il nome della stazione.

Clicca sopra per visualizzare le osservazioni e previsioni meteorologiche.

Per cambiare la mappa : fare clic sui pulsanti verdi con una croce nera per ingrandire, il pulsante verde con un trattino per diminuire, o sulla freccia verde per le mappe adiacenti.


METAR-TAF: